Terminal Aerodrome Forecast
Issued by NWS

Current Version | Previous Version | Text Only | Print | Product List | Glossary On
Versions: 1 2 3 4 5 6 7 8 9 10 11 12 13 14 15
568
FTUS42 KTAE 232320
TAFECP
TAF
KECP 232320Z 2400/2424 32007KT P6SM SCT050
     FM240900 32005KT P6SM BKN015
     FM241400 32015KT P6SM BKN025
     FM241800 30015KT P6SM BKN045=

USA.gov is the U.S. government's official web portal to all federal, state and local government web resources and services.